الصفحة الرئيسية
METAR-TAF:

METAR-TAF

مطار :

مغنيتاغورسك, روسيا

دائرة عرض: 53-23-36N, خط طول: 058-45-24E, ارتفاع: 436 متر

مراقبة الطقس الحالي

تاريخ ووقت الإصدار 21 دقيقة قبل الساعة 22:30UTC
ريح 4 عقدة من الشمال الغربي, الاتجاه يتراوح بين الغرب و الشمال/الشمال الغربي
درجة الحرارة 15°درجة مئوية
الرطوبة 72%
ضغط 1007 hPa
الرؤية 10 كم أو أكثر
ملبد بالغيوم على ارتفاع 4000 قدم, مزنة ركامية.

METAR: USCM 222230Z 31002MPS 270V340 9999 OVC040CB 15/10 Q1007 R36/090065 TEMPO 32013MPS 2000 TSRA BKN007CB RMK QFE717

زمن: 03:51 (22:51 UTC)

توقعات

تاريخ ووقت الإصدار 2ساعات و 51 دقيقة قبل الساعة 20:00UTC
التوقعات صالحة من22 الساعة 21 UTC إلى 23 الساعة 06 UTC
ريح 10 عقدة من الغرب
الرؤية 10 كم أو أكثر
غيوم متفرقة على ارتفاع 3000 قدم, مزنة ركامية.
مؤقت
من 22 الساعة 21 UTC إلى 23 الساعة 03 UTC
ريح 6 عقدة من الغرب
مؤقت
من 23 الساعة 03 UTC إلى 23 الساعة 06 UTC
ريح 17 عقدة من الشمال الغربي

TAF: USCM 222000Z 2221/2306 28005MPS 9999 SCT030CB TEMPO 2221/2303 26003MPS TEMPO 2303/2306 31009MPS

أرصاد الطقس والتوقعات من أكثر من 4000 مطار (تقارير الطقس للمطار METAR والتنبؤ بالطقس بالمطارTAF).

المحطات المتاحة هي النقط الصفراء والحمراء على الخريطة.

حرك المؤشر فوق النقطة لمعرفة اسم المحطة.

ثم انقر لمعرفة أرصاد وتوقعات الطقس.

لتغيير الخارطة: اضغط على الأزرار الخضراء مع رمز الصليب الأسود للتكبير. على الزر الأخضر مع شرطة للتصغير، أو على الأسهم الخضراء للخرائط المجاورة.


METAR-TAF: